Time;durP1;ratioP1;P1;durP2;ratioP2;P2;SDS_P1;SDS_P2;PMS_P1;PMS_P2;Temp;Humidity;BMP_temperature;BMP_pressure;BME280_temperature;BME280_humidity;BME280_pressure;Samples;Min_cycle;Max_cycle;Signal;HPM_P1;HPM_P2
2023/10/01 00:00:43;;;;;;;16.83;7.32;;;;;;;11.69;100.00;102237.97;5113714;28;20150;-80
2023/10/01 00:03:09;;;;;;;11.27;7.63;;;;;;;11.66;100.00;102246.53;5095823;28;20126;-80
2023/10/01 00:05:35;;;;;;;16.07;8.13;;;;;;;11.65;100.00;102248.41;5079281;28;20059;-80
2023/10/01 00:08:02;;;;;;;11.05;7.05;;;;;;;11.64;100.00;102248.59;5078474;28;20482;-80
2023/10/01 00:10:28;;;;;;;12.55;7.50;;;;;;;11.64;100.00;102248.59;5095638;28;20055;-80
2023/10/01 00:12:54;;;;;;;12.90;7.27;;;;;;;11.61;100.00;102247.09;5112722;28;20032;-80
2023/10/01 00:15:25;;;;;;;14.70;7.35;;;;;;;11.57;100.00;102246.63;5114841;28;20035;-80
2023/10/01 00:17:50;;;;;;;12.50;7.15;;;;;;;11.55;100.00;102245.97;5117262;28;20030;-80
2023/10/01 00:22:45;;;;;;;10.98;6.63;;;;;;;11.50;100.00;102250.25;5117581;28;20104;-80
2023/10/01 00:25:11;;;;;;;12.43;7.28;;;;;;;11.49;100.00;102246.72;5116169;28;20468;-80
2023/10/01 00:27:38;;;;;;;15.97;7.30;;;;;;;11.50;100.00;102250.25;5116562;28;20024;-80
2023/10/01 00:30:06;;;;;;;14.52;7.32;;;;;;;11.49;100.00;102249.44;5099152;28;20043;-80
2023/10/01 00:32:32;;;;;;;11.18;6.93;;;;;;;11.50;100.00;102250.25;5117483;28;20038;-80
2023/10/01 00:34:57;;;;;;;13.40;7.07;;;;;;;11.49;100.00;102245.88;5116260;28;20114;-80
2023/10/01 00:37:23;;;;;;;12.17;6.37;;;;;;;11.47;100.00;102251.50;5099370;28;20096;-80
2023/10/01 00:39:50;;;;;;;12.82;6.85;;;;;;;11.46;100.00;102236.22;5098753;28;20435;-80
2023/10/01 00:42:15;;;;;;;9.43;6.53;;;;;;;11.46;100.00;102247.09;5116079;28;20028;-80
2023/10/01 00:44:40;;;;;;;12.80;6.70;;;;;;;11.47;100.00;102242.50;5099342;28;20032;-80
2023/10/01 00:47:06;;;;;;;11.83;6.80;;;;;;;11.46;100.00;102238.94;5098664;28;20032;-80
2023/10/01 00:49:39;;;;;;;13.40;6.70;;;;;;;11.48;100.00;102231.44;5116165;28;20359;-80
2023/10/01 00:52:10;;;;;;;10.13;5.95;;;;;;;11.49;100.00;102230.41;5117302;28;20066;-80
2023/10/01 00:54:35;;;;;;;12.32;6.60;;;;;;;11.52;100.00;102226.47;5116009;28;20035;-80
2023/10/01 00:57:01;;;;;;;14.23;6.13;;;;;;;11.52;100.00;102224.59;5115550;28;20030;-80
2023/10/01 00:59:26;;;;;;;11.73;5.83;;;;;;;11.53;100.00;102226.28;5116632;28;20032;-80
2023/10/01 01:01:53;;;;;;;11.50;5.73;;;;;;;11.54;100.00;102219.78;5116647;28;20107;-80
2023/10/01 01:04:22;;;;;;;12.73;5.63;;;;;;;11.54;100.00;102214.38;5115488;28;20035;-79
2023/10/01 01:06:50;;;;;;;12.88;5.93;;;;;;;11.54;100.00;102210.81;5114963;28;20032;-80
2023/10/01 01:09:19;;;;;;;11.93;5.65;;;;;;;11.52;100.00;102202.84;5116551;28;20032;-80
2023/10/01 01:11:50;;;;;;;10.50;5.43;;;;;;;11.50;100.00;102198.63;5098685;28;20024;-80
2023/10/01 01:14:16;;;;;;;11.80;6.07;;;;;;;11.50;100.00;102198.63;5098609;28;20043;-80
2023/10/01 01:16:42;;;;;;;10.57;5.63;;;;;;;11.50;100.00;102204.06;5115251;28;20066;-80
2023/10/01 01:19:09;;;;;;;11.40;5.97;;;;;;;11.50;100.00;102194.06;5116133;28;20028;-80
2023/10/01 01:21:34;;;;;;;8.57;5.13;;;;;;;11.48;100.00;102193.38;5115144;28;20064;-80
2023/10/01 01:24:03;;;;;;;11.00;5.60;;;;;;;11.49;100.00;102189.63;5114971;28;20032;-80
2023/10/01 01:26:29;;;;;;;12.35;5.95;;;;;;;11.46;100.00;102195.44;5097483;28;20392;-80
2023/10/01 01:28:54;;;;;;;12.17;5.50;;;;;;;11.47;100.00;102197.16;5097579;28;20035;-80
2023/10/01 01:31:26;;;;;;;13.00;5.43;;;;;;;11.48;100.00;102195.25;5097855;28;20062;-80
2023/10/01 01:33:55;;;;;;;12.43;5.47;;;;;;;11.47;100.00;102190.84;5115114;28;20027;-80
2023/10/01 01:36:21;;;;;;;9.02;5.43;;;;;;;11.47;100.00;102191.72;5114856;28;20028;-80
2023/10/01 01:39:26;;;;;;;12.40;6.22;;;;;;;11.46;100.00;102192.72;5097859;28;20032;-80
2023/10/01 01:41:51;;;;;;;8.10;5.40;;;;;;;11.43;100.00;102190.41;5091327;28;20036;-80
2023/10/01 01:44:17;;;;;;;8.70;5.55;;;;;;;11.45;100.00;102185.59;5097527;28;20024;-80
2023/10/01 01:46:49;;;;;;;10.00;5.10;;;;;;;11.49;100.00;102176.03;5097627;28;20036;-80
2023/10/01 01:49:19;;;;;;;10.63;5.63;;;;;;;11.49;100.00;102186.09;5099156;28;20035;-80
2023/10/01 01:51:57;;;;;;;10.65;5.80;;;;;;;11.52;100.00;102180.28;5114531;28;20059;-80
2023/10/01 01:54:27;;;;;;;11.52;5.60;;;;;;;11.52;100.00;102174.84;5115343;28;20372;-80
2023/10/01 01:56:55;;;;;;;10.88;5.30;;;;;;;11.52;100.00;102178.38;5116194;28;20035;-80
2023/10/01 01:59:23;;;;;;;9.13;5.10;;;;;;;11.51;100.00;102182.13;5114341;28;20074;-80
2023/10/01 02:01:49;;;;;;;11.20;5.25;;;;;;;11.49;100.00;102178.75;5114641;28;20115;-80
2023/10/01 02:04:15;;;;;;;12.38;5.28;;;;;;;11.47;100.00;102178.13;5080370;28;20403;-80
2023/10/01 02:06:42;;;;;;;9.73;5.13;;;;;;;11.45;100.00;102185.59;5115490;28;20030;-80
2023/10/01 02:09:12;;;;;;;10.35;5.07;;;;;;;11.43;100.00;102178.66;5114233;28;20383;-80
2023/10/01 02:11:38;;;;;;;8.32;4.80;;;;;;;11.44;100.00;102175.78;5098191;28;20031;-80
2023/10/01 02:14:05;;;;;;;11.70;5.13;;;;;;;11.40;100.00;102177.19;5115574;28;20035;-80
2023/10/01 02:16:37;;;;;;;9.77;4.80;;;;;;;11.39;100.00;102173.59;5097448;28;20032;-86
2023/10/01 02:21:49;;;;;;;14.43;5.30;;;;;;;11.38;100.00;102157.50;5115665;28;20048;-86
2023/10/01 02:24:26;;;;;;;11.55;5.38;;;;;;;11.33;100.00;102155.34;5113868;28;20118;-87
2023/10/01 02:27:03;;;;;;;9.38;4.97;;;;;;;11.33;100.00;102152.63;5097054;28;20051;-86
2023/10/01 02:29:53;;;;;;;10.95;5.25;;;;;;;11.38;100.00;102157.50;5114101;28;20448;-86
2023/10/01 02:32:32;;;;;;;10.57;5.18;;;;;;;11.36;100.00;102152.25;5100741;28;20031;-87
2023/10/01 02:35:34;;;;;;;10.03;5.20;;;;;;;11.37;100.00;102147.69;5114298;28;20085;-87
2023/10/01 02:37:55;;;;;;;8.45;4.68;;;;;;;11.31;100.00;102142.97;5112700;28;20032;-87
2023/10/01 02:40:23;;;;;;;8.80;5.15;;;;;;;11.34;100.00;102157.03;5113253;28;20047;-87
2023/10/01 02:42:56;;;;;;;9.73;4.97;;;;;;;11.32;100.00;102155.53;5096639;28;20437;-88
2023/10/01 02:45:33;;;;;;;12.85;5.05;;;;;;;11.34;100.00;102159.75;5114037;28;20043;-89
2023/10/01 02:54:39;;;;;;;10.10;4.65;;;;;;;11.35;100.00;102176.91;5114973;28;20042;-89
2023/10/01 03:06:09;;;;;;;13.05;5.50;;;;;;;11.29;100.00;102177.66;5114472;28;20065;-89
2023/10/01 03:08:59;;;;;;;12.00;5.13;;;;;;;11.22;100.00;102161.28;5113171;28;20122;-89
2023/10/01 03:11:32;;;;;;;10.73;5.25;;;;;;;11.23;100.00;102163.81;5098929;28;20069;-89
2023/10/01 03:14:04;;;;;;;11.30;5.30;;;;;;;11.21;100.00;102165.84;5112715;28;20031;-89
2023/10/01 03:16:53;;;;;;;10.97;5.47;;;;;;;11.15;100.00;102155.72;5112789;28;20080;-89
2023/10/01 03:19:28;;;;;;;14.98;6.25;;;;;;;11.14;100.00;102159.47;5099621;28;20035;-89
2023/10/01 03:24:42;;;;;;;11.25;5.30;;;;;;;11.15;100.00;102161.16;5114094;28;20045;-89
2023/10/01 03:27:20;;;;;;;12.70;5.35;;;;;;;11.15;100.00;102165.75;5114486;28;20031;-89
2023/10/01 03:30:00;;;;;;;10.03;4.80;;;;;;;11.14;100.00;102172.22;5112936;28;20072;-89
2023/10/01 03:32:33;;;;;;;9.70;5.38;;;;;;;11.04;100.00;102157.06;5113745;28;20020;-89
2023/10/01 03:35:08;;;;;;;11.27;5.45;;;;;;;11.04;100.00;102162.47;5114683;28;20023;-89
2023/10/01 03:37:42;;;;;;;12.07;5.38;;;;;;;11.02;100.00;102155.53;5113469;28;20023;-89
2023/10/01 03:40:21;;;;;;;11.93;5.55;;;;;;;11.00;100.00;102153.00;5112964;28;20024;-89
2023/10/01 03:46:06;;;;;;;10.93;4.93;;;;;;;11.01;100.00;102160.16;5113809;28;20035;-89
2023/10/01 03:51:28;;;;;;;9.40;4.57;;;;;;;10.96;100.00;102148.16;5117972;28;20073;-89
2023/10/01 03:54:20;;;;;;;14.10;5.78;;;;;;;10.95;100.00;102149.16;5117796;28;20044;-89
2023/10/01 04:03:02;;;;;;;9.77;4.93;;;;;;;11.02;100.00;102161.81;5116931;28;20040;-89
2023/10/01 04:09:00;;;;;;;10.63;4.80;;;;;;;10.94;100.00;102139.31;5117885;28;20124;-89
2023/10/01 04:15:10;;;;;;;10.77;5.10;;;;;;;10.98;100.00;102152.34;5114735;28;20437;-89
2023/10/01 04:23:47;;;;;;;10.90;5.18;;;;;;;10.95;100.00;102143.72;5094675;28;20032;-89
2023/10/01 04:33:44;;;;;;;10.05;4.75;;;;;;;11.04;100.00;102148.03;5084540;28;20043;-89
2023/10/01 04:39:42;;;;;;;10.45;5.20;;;;;;;10.98;100.00;102137.94;5094618;28;20092;-89
2023/10/01 04:45:47;;;;;;;11.68;4.88;;;;;;;11.03;100.00;102146.38;5054620;28;20051;-89
2023/10/01 04:51:58;;;;;;;;;;;;;;;;;;;;;
2023/10/01 05:00:55;;;;;;;9.73;5.13;;;;;;;10.91;100.00;102143.28;4993906;28;20137;-90
2023/10/01 05:03:38;;;;;;;10.80;5.32;;;;;;;10.91;100.00;102137.84;5031513;28;20065;-89
2023/10/01 05:09:53;;;;;;;14.75;5.63;;;;;;;10.95;100.00;102160.03;5096635;28;20066;-89
2023/10/01 05:19:09;;;;;;;13.27;5.20;;;;;;;10.86;100.00;102142.97;5036076;28;20397;-89
2023/10/01 05:25:12;;;;;;;12.70;5.05;;;;;;;10.88;100.00;102154.50;5015414;28;20084;-89
2023/10/01 05:31:22;;;;;;;10.50;5.22;;;;;;;10.91;100.00;102166.84;5021127;28;20087;-89
2023/10/01 05:34:29;;;;;;;12.38;5.32;;;;;;;10.92;100.00;102171.25;4964622;29;20149;-89
2023/10/01 05:37:36;;;;;;;13.43;5.55;;;;;;;10.92;100.00;102168.56;4962764;28;20032;-89
2023/10/01 05:46:49;;;;;;;11.75;5.63;;;;;;;10.82;100.00;102169.66;4970357;28;20049;-89
2023/10/01 05:52:50;;;;;;;12.27;5.67;;;;;;;10.86;100.00;102179.09;5008921;28;20444;-90
2023/10/01 05:55:29;;;;;;;;;;;;;;;;;;;;;
2023/10/01 05:58:12;;;;;;;10.95;5.47;;;;;;;10.95;100.00;102163.56;5101078;28;20088;-95
2023/10/01 06:00:55;;;;;;;;;;;;;;;;;;;;;
2023/10/01 06:03:34;;;;;;;10.15;5.70;;;;;;;10.98;100.00;102152.34;5117552;28;20447;-90
2023/10/01 06:09:04;;;;;;;13.07;5.97;;;;;;;11.03;100.00;102149.91;5073667;28;20035;-94
2023/10/01 06:11:41;;;;;;;13.30;5.50;;;;;;;11.13;100.00;102160.53;5098986;28;20054;-93
2023/10/01 06:14:38;;;;;;;11.75;5.45;;;;;;;11.16;100.00;102162.00;5099135;28;20016;-92
2023/10/01 06:20:03;;;;;;;14.40;5.67;;;;;;;11.33;100.00;102168.94;5096784;28;20038;-95
2023/10/01 06:23:07;;;;;;;12.40;5.07;;;;;;;11.45;100.00;102177.44;5082948;28;20110;-94
2023/10/01 06:25:53;;;;;;;10.80;5.07;;;;;;;11.53;100.00;102171.06;5100262;28;20114;-96
2023/10/01 06:28:24;;;;;;;12.27;5.97;;;;;;;11.48;100.00;102166.19;5101744;28;20027;-96
2023/10/01 06:31:08;;;;;;;;;;;;;;;;;;;;;
2023/10/01 06:33:46;;;;;;;;;;;;;;;;;;;;;
2023/10/01 06:36:21;;;;;;;12.93;5.35;;;;;;;11.79;100.00;102164.28;5116642;28;20033;-96
2023/10/01 06:38:59;;;;;;;11.95;5.47;;;;;;;11.89;100.00;102170.25;5097634;28;20028;-96
2023/10/01 06:44:55;;;;;;;;;;;;;;;;;;;;;
2023/10/01 06:48:05;;;;;;;15.83;5.60;;;;;;;12.13;100.00;102169.06;5095051;28;20050;-93
2023/10/01 06:50:52;;;;;;;10.57;5.47;;;;;;;12.24;100.00;102171.28;5085791;28;20036;-95
2023/10/01 06:53:58;;;;;;;;;;;;;;;;;;;;;
2023/10/01 06:56:32;;;;;;;13.82;5.38;;;;;;;12.34;100.00;102142.91;5116091;28;20038;-95
2023/10/01 07:02:07;;;;;;;;;;;;;;;;;;;;;
2023/10/01 07:05:06;;;;;;;;;;;;;;;;;;;;;
2023/10/01 07:07:52;;;;;;;13.25;5.20;;;;;;;12.64;100.00;102144.41;5086735;28;20166;-95
2023/10/01 07:11:04;;;;;;;;;;;;;;;;;;;;;
2023/10/01 07:13:52;;;;;;;15.77;5.60;;;;;;;12.86;100.00;102143.50;5110740;28;20374;-95
2023/10/01 07:16:35;;;;;;;12.50;5.50;;;;;;;13.00;100.00;102156.19;5099836;28;20046;-93
2023/10/01 07:19:15;;;;;;;12.48;5.38;;;;;;;13.06;100.00;102158.13;5087649;28;20040;-95
2023/10/01 07:24:50;;;;;;;14.57;5.88;;;;;;;13.19;100.00;102159.25;5116403;28;20456;-91
2023/10/01 07:27:21;;;;;;;14.60;6.05;;;;;;;13.31;100.00;102177.53;5126223;28;20028;-93
2023/10/01 07:29:54;;;;;;;13.90;6.00;;;;;;;13.30;100.00;102162.25;5083984;28;20035;-90
2023/10/01 07:32:51;;;;;;;;;;;;;;;;;;;;;
2023/10/01 07:35:21;;;;;;;15.65;6.70;;;;;;;13.40;100.00;102161.06;5092375;28;20032;-88
2023/10/01 08:03:55;;;;;;;14.97;6.20;;;;;;;14.30;100.00;102172.66;5093485;28;20525;-85
2023/10/01 08:06:42;;;;;;;12.20;5.47;;;;;;;14.39;100.00;102178.78;5080548;28;20044;-86
2023/10/01 08:09:27;;;;;;;13.80;5.68;;;;;;;14.56;100.00;102187.41;5077256;28;20035;-86
2023/10/01 08:12:17;;;;;;;14.70;6.30;;;;;;;14.58;100.00;102168.91;5059481;28;20499;-86
2023/10/01 08:15:18;;;;;;;13.65;5.80;;;;;;;14.68;100.00;102160.34;5074816;28;20032;-86
2023/10/01 08:17:54;;;;;;;;;;;;;;;;;;;;;
2023/10/01 08:20:22;;;;;;;14.35;6.05;;;;;;;14.95;100.00;102183.00;5093389;28;20031;-87
2023/10/01 08:25:53;;;;;;;14.63;6.15;;;;;;;15.13;100.00;102189.69;5093725;28;20112;-86
2023/10/01 08:41:02;;;;;;;14.13;6.57;;;;;;;15.58;100.00;102201.56;5096763;28;20076;-87
2023/10/01 08:43:41;;;;;;;15.90;6.75;;;;;;;15.62;100.00;102196.53;5078256;28;20028;-87
2023/10/01 08:46:18;;;;;;;13.27;6.27;;;;;;;15.67;100.00;102188.50;5078176;28;20032;-86
2023/10/01 08:48:47;;;;;;;14.05;6.38;;;;;;;15.78;100.00;102197.94;5078642;28;20036;-87
2023/10/01 08:51:17;;;;;;;15.13;6.47;;;;;;;15.92;100.00;102196.00;5078134;28;20016;-86
2023/10/01 08:53:46;;;;;;;13.25;6.30;;;;;;;15.96;100.00;102192.59;5062289;28;20036;-86
2023/10/01 08:59:41;;;;;;;14.50;6.20;;;;;;;16.23;100.00;102200.66;5096020;28;20042;-87
2023/10/01 09:02:22;;;;;;;16.83;6.82;;;;;;;16.31;100.00;102203.13;5081775;28;20059;-87
2023/10/01 09:04:49;;;;;;;14.73;6.13;;;;;;;16.41;100.00;102210.84;5099097;28;20122;-87
2023/10/01 09:07:20;;;;;;;15.00;6.78;;;;;;;16.49;100.00;102199.63;5098686;28;20127;-87
2023/10/01 09:10:17;;;;;;;15.10;6.68;;;;;;;16.57;100.00;102195.78;5116297;28;20356;-88
2023/10/01 09:12:48;;;;;;;17.23;7.13;;;;;;;16.67;100.00;102198.84;5082186;28;20032;-87
2023/10/01 09:15:29;;;;;;;15.57;6.45;;;;;;;16.78;100.00;102196.44;5099002;28;20463;-86
2023/10/01 09:18:00;;;;;;;14.95;6.47;;;;;;;16.87;100.00;102200.59;5098086;28;20027;-87
2023/10/01 09:23:54;;;;;;;16.25;6.80;;;;;;;17.06;100.00;102182.28;5117749;28;20038;-86
2023/10/01 09:26:37;;;;;;;12.93;6.27;;;;;;;17.23;100.00;102188.03;5098904;28;20039;-87
2023/10/01 09:33:04;;;;;;;13.70;6.40;;;;;;;17.48;100.00;102173.38;5093883;28;20506;-86
2023/10/01 09:36:45;;;;;;;13.98;6.50;;;;;;;17.66;100.00;102167.06;5033378;28;20544;-87
2023/10/01 09:39:13;;;;;;;16.38;6.38;;;;;;;17.75;100.00;102173.91;5032764;28;20038;-87
2023/10/01 09:41:45;;;;;;;12.30;6.03;;;;;;;17.85;100.00;102168.69;5033077;28;20133;-87
2023/10/01 09:44:18;;;;;;;15.38;6.55;;;;;;;17.91;100.00;102164.22;5016337;28;20049;-87
2023/10/01 09:46:48;;;;;;;16.80;7.18;;;;;;;17.97;100.00;102160.53;5032958;28;20156;-87
2023/10/01 09:55:47;;;;;;;11.83;5.50;;;;;;;18.36;99.85;102169.25;5032840;28;20076;-87
2023/10/01 09:58:28;;;;;;;14.20;6.38;;;;;;;18.51;99.27;102171.56;5016640;28;20358;-86
2023/10/01 10:01:11;;;;;;;14.90;6.22;;;;;;;18.61;97.37;102168.22;5058736;28;20040;-86
2023/10/01 10:03:42;;;;;;;14.18;6.30;;;;;;;18.66;98.35;102151.00;5097322;28;20486;-86
2023/10/01 10:06:16;;;;;;;15.23;6.80;;;;;;;18.78;96.16;102162.84;5081362;28;20413;-87
2023/10/01 10:09:06;;;;;;;14.70;6.10;;;;;;;18.81;94.80;102156.03;5052148;28;20076;-88
2023/10/01 10:11:38;;;;;;;17.92;5.95;;;;;;;18.92;95.05;102167.06;5110449;28;20106;-87
2023/10/01 10:14:39;;;;;;;;;;;;;;;;;;;;;
2023/10/01 10:20:25;;;;;;;15.07;6.10;;;;;;;19.33;94.77;102167.13;5115172;28;20506;-87
2023/10/01 10:23:21;;;;;;;13.73;6.40;;;;;;;19.41;93.34;102161.28;5013046;28;20034;-87
2023/10/01 10:25:54;;;;;;;12.73;6.47;;;;;;;19.50;93.66;102147.13;5028554;28;20035;-87
2023/10/01 10:28:53;;;;;;;12.80;5.63;;;;;;;19.62;92.84;102148.75;5115224;28;20032;-87
2023/10/01 10:34:36;;;;;;;12.85;6.45;;;;;;;19.96;90.87;102148.88;5115698;28;20080;-87
2023/10/01 10:37:06;;;;;;;12.90;6.17;;;;;;;20.11;90.64;102133.72;5100401;28;20031;-87
2023/10/01 10:49:10;;;;;;;13.98;6.68;;;;;;;20.74;86.63;102137.25;5114099;28;20035;-87
2023/10/01 11:05:30;;;;;;;11.73;6.20;;;;;;;25.82;73.14;102137.13;5105476;27;20420;-87
2023/10/01 11:16:15;;;;;;;12.75;6.00;;;;;;;30.99;48.19;102125.22;5114991;28;20047;-87
2023/10/01 11:39:06;;;;;;;14.88;7.70;;;;;;;34.47;34.99;102095.34;5031805;28;20106;-88
2023/10/01 11:49:07;;;;;;;13.90;8.02;;;;;;;35.61;32.57;102086.09;5114174;28;20053;-88
2023/10/01 11:52:25;;;;;;;14.00;8.05;;;;;;;36.21;32.05;102083.38;5096319;28;20023;-87
2023/10/01 11:58:16;;;;;;;12.90;7.60;;;;;;;36.22;30.12;102078.53;5113982;28;20407;-90
2023/10/01 13:10:50;;;;;;;14.77;9.85;;;;;;;39.44;23.64;101988.91;5096298;28;20047;-89
2023/10/01 14:10:38;;;;;;;14.50;10.23;;;;;;;43.87;19.72;101960.53;5112523;27;20054;-88
2023/10/01 14:13:29;;;;;;;13.20;9.50;;;;;;;42.86;20.80;101938.25;5097110;28;20218;-88
2023/10/01 18:02:50;;;;;;;16.60;8.00;;;;;;;21.56;78.56;101880.75;5093618;28;20472;-88
2023/10/01 20:25:14;;;;;;;17.87;8.07;;;;;;;17.81;100.00;101876.50;5030163;28;20815;-88
2023/10/01 20:27:55;;;;;;;;;;;;;;;;;;;;;
2023/10/01 20:30:31;;;;;;;18.65;8.45;;;;;;;17.71;100.00;101885.31;5032672;28;20042;-88
2023/10/01 20:33:35;;;;;;;17.25;8.18;;;;;;;17.72;100.00;101891.69;4962449;28;20050;-88
2023/10/01 20:39:42;;;;;;;17.47;8.03;;;;;;;17.63;100.00;101877.47;4995698;28;20125;-88
2023/10/01 20:42:29;;;;;;;;;;;;;;;;;;;;;
2023/10/01 20:45:22;;;;;;;20.02;8.93;;;;;;;17.61;100.00;101889.75;4980353;28;20511;-88
2023/10/01 20:47:56;;;;;;;17.05;8.43;;;;;;;17.54;100.00;101881.66;4979205;28;20503;-88
2023/10/01 20:50:37;;;;;;;18.83;8.55;;;;;;;17.51;100.00;101874.72;4963471;28;20086;-88
2023/10/01 20:53:15;;;;;;;20.97;8.20;;;;;;;17.54;100.00;101885.22;4979321;28;20045;-88
2023/10/01 20:55:48;;;;;;;17.38;8.32;;;;;;;17.49;100.00;101887.00;4994956;28;20041;-88
2023/10/01 20:58:46;;;;;;;17.30;8.38;;;;;;;17.46;100.00;101879.25;4980451;28;20046;-87
2023/10/01 21:01:38;;;;;;;19.25;8.23;;;;;;;17.43;100.00;101885.19;4978440;28;20038;-88
2023/10/01 21:04:22;;;;;;;17.40;8.48;;;;;;;17.40;100.00;101886.50;4999233;28;20466;-88
2023/10/01 21:07:14;;;;;;;18.47;7.90;;;;;;;17.39;100.00;101879.38;5019557;28;20470;-88
2023/10/01 21:09:46;;;;;;;20.25;8.75;;;;;;;17.37;100.00;101878.75;5023371;28;20064;-87
2023/10/01 21:12:37;;;;;;;17.88;8.75;;;;;;;17.33;100.00;101872.06;5025347;28;20093;-87
2023/10/01 21:15:13;;;;;;;20.02;8.65;;;;;;;17.38;100.00;101880.44;5021928;28;20533;-88
2023/10/01 21:17:49;;;;;;;16.40;8.43;;;;;;;17.35;100.00;101875.41;5036115;28;20160;-87
2023/10/01 21:20:21;;;;;;;17.17;7.30;;;;;;;17.30;100.00;101864.28;5035770;28;20046;-88
2023/10/01 21:23:01;;;;;;;;;;;;;;;;;;;;;
2023/10/01 21:25:31;;;;;;;18.63;8.63;;;;;;;17.23;100.00;101852.59;5031759;28;20053;-87
2023/10/01 21:28:11;;;;;;;18.65;7.63;;;;;;;17.22;100.00;101854.50;5002788;28;20038;-88
2023/10/01 21:30:44;;;;;;;19.85;8.18;;;;;;;17.22;100.00;101862.75;5002988;28;20049;-88
2023/10/01 21:33:24;;;;;;;17.60;7.77;;;;;;;17.23;100.00;101858.09;5018339;28;20037;-88
2023/10/01 21:36:02;;;;;;;;;;;;;;;;;;;;;
2023/10/01 21:38:40;;;;;;;17.55;8.02;;;;;;;17.17;100.00;101841.50;5036803;28;20038;-88
2023/10/01 21:41:15;;;;;;;17.25;8.15;;;;;;;17.17;100.00;101848.91;5002034;28;20072;-88
2023/10/01 21:43:46;;;;;;;16.73;8.50;;;;;;;17.16;100.00;101850.81;5017199;28;20042;-88
2023/10/01 21:46:16;;;;;;;19.37;8.17;;;;;;;17.17;100.00;101854.41;5034151;28;20069;-88
2023/10/01 21:48:51;;;;;;;17.10;7.88;;;;;;;17.22;100.00;101862.75;5017981;28;20033;-88
2023/10/01 21:57:52;;;;;;;15.85;7.45;;;;;;;17.09;100.00;101855.53;4974439;28;20081;-88
2023/10/01 22:03:53;;;;;;;19.05;8.38;;;;;;;17.09;100.00;101852.81;4969748;28;20033;-88
2023/10/01 22:10:08;;;;;;;21.23;8.18;;;;;;;17.06;100.00;101857.94;4974207;28;20048;-87
2023/10/01 22:16:00;;;;;;;19.13;7.43;;;;;;;16.96;100.00;101840.16;4974111;28;20145;-88
2023/10/01 22:18:31;;;;;;;15.38;7.60;;;;;;;16.99;100.00;101855.28;4957591;28;20046;-88
2023/10/01 22:21:03;;;;;;;20.45;8.30;;;;;;;16.88;100.00;101843.22;4957675;28;20050;-88
2023/10/01 22:23:38;;;;;;;16.30;7.70;;;;;;;16.89;100.00;101844.03;5015642;28;20034;-88
2023/10/01 22:26:15;;;;;;;17.95;8.10;;;;;;;16.86;100.00;101841.75;5016859;28;20092;-88
2023/10/01 22:28:59;;;;;;;16.43;7.23;;;;;;;16.85;100.00;101843.66;5017706;28;20041;-88
2023/10/01 22:31:27;;;;;;;18.27;7.95;;;;;;;16.87;100.00;101846.16;5002222;28;20145;-88
2023/10/01 22:34:04;;;;;;;19.38;7.93;;;;;;;16.77;100.00;101839.34;5016538;28;20033;-88
2023/10/01 22:36:34;;;;;;;18.40;7.95;;;;;;;16.77;100.00;101850.31;5016825;28;20124;-87
2023/10/01 22:39:13;;;;;;;14.02;7.80;;;;;;;16.74;100.00;101845.31;5017018;28;20120;-88
2023/10/01 22:41:58;;;;;;;17.53;7.60;;;;;;;16.71;100.00;101842.16;4956770;28;20413;-88
2023/10/01 22:48:17;;;;;;;17.30;7.88;;;;;;;16.63;100.00;101844.16;5007512;28;20035;-88
2023/10/01 22:54:17;;;;;;;17.98;7.93;;;;;;;16.56;100.00;101848.06;4993151;28;20406;-88
2023/10/01 23:00:08;;;;;;;15.73;7.97;;;;;;;16.48;100.00;101851.97;4992537;28;20049;-88
2023/10/01 23:06:02;;;;;;;19.25;8.13;;;;;;;16.39;100.00;101837.75;4993034;28;20085;-88
2023/10/01 23:09:17;;;;;;;21.00;9.02;;;;;;;16.43;100.00;101855.41;4992702;28;20132;-88
2023/10/01 23:11:48;;;;;;;17.83;8.03;;;;;;;16.37;100.00;101856.31;4993054;28;20037;-88
2023/10/01 23:14:20;;;;;;;18.02;8.70;;;;;;;16.32;100.00;101853.44;4992341;28;20161;-88
2023/10/01 23:16:57;;;;;;;22.85;8.90;;;;;;;16.28;100.00;101853.06;4976067;28;20054;-88
2023/10/01 23:22:17;;;;;;;22.60;8.57;;;;;;;16.21;100.00;101846.81;5017964;28;20048;-88
2023/10/01 23:24:54;;;;;;;19.93;8.53;;;;;;;16.23;100.00;101855.63;5016166;28;20033;-88
2023/10/01 23:31:23;;;;;;;16.63;8.15;;;;;;;16.10;100.00;101844.84;4953979;29;20181;-88
2023/10/01 23:37:13;;;;;;;22.73;8.65;;;;;;;16.12;100.00;101848.16;4953729;29;20041;-88
2023/10/01 23:39:51;;;;;;;19.93;8.43;;;;;;;16.11;100.00;101849.25;5022052;28;20037;-88
2023/10/01 23:42:20;;;;;;;21.15;8.90;;;;;;;16.07;100.00;101848.03;5032947;28;20050;-88
2023/10/01 23:45:19;;;;;;;21.25;8.88;;;;;;;16.08;100.00;101846.97;5033867;28;20045;-88
2023/10/01 23:47:58;;;;;;;19.77;8.10;;;;;;;16.05;100.00;101851.00;5001465;28;20073;-88
2023/10/01 23:50:30;;;;;;;17.83;8.30;;;;;;;15.99;100.00;101842.84;5016153;28;20063;-88
2023/10/01 23:53:06;;;;;;;20.43;8.57;;;;;;;15.96;100.00;101842.25;5033723;28;20064;-88
2023/10/01 23:55:45;;;;;;;18.75;8.50;;;;;;;15.94;100.00;101841.66;5016509;28;20120;-88
2023/10/01 23:58:20;;;;;;;20.45;8.43;;;;;;;15.96;100.00;101845.00;4999699;28;20056;-88
